ZRH weather

Public forecast

Using degrees Celsius for public forecast. Weather courtesy of forecast.io.

Current aviation weather report (METAR) for Zürich Airport

Retrieved 2020/08/13 08:20 UTC (3 minutes ago):

LSZH 130820Z 21004KT 170V250 CAVOK 24/17 Q1017 NOSIG

Aviation forecast (TAF) for Zürich Airport

Retrieved 2020/08/13 09:37 UTC (0 seconds ago):

TAF LSZH 130825Z 1309/1415 VRB03KT CAVOK TX28/1315Z TN18/1404Z TX27/1415Z PROB40 TEMPO 1310/1317 07008KT PROB30 TEMPO 1311/1320 25010KT 6000 TSRA SCT060CB PROB40 TEMPO 1320/1411 25015G25KT 4500 TSRA SCT060CB TEMPO 1322/1411 8000 SHRA SCT050TCU BKN060 BECMG 1400/1403 9999 SCT040 BKN050